Time;durP1;ratioP1;P1;durP2;ratioP2;P2;SDS_P1;SDS_P2;PMS_P1;PMS_P2;Temp;Humidity;BMP_temperature;BMP_pressure;BME280_temperature;BME280_humidity;BME280_pressure;Samples;Min_cycle;Max_cycle;Signal;HPM_P1;HPM_P2
2021/11/21 00:01:23;;;;;;;11.70;9.33;;;;;;;7.38;81.83;95222.13;5055154;28;20442;-85
2021/11/21 00:03:50;;;;;;;10.97;9.27;;;;;;;7.37;81.98;95219.63;5055132;28;20548;-85
2021/11/21 00:06:18;;;;;;;11.73;9.50;;;;;;;7.28;81.93;95215.00;5055410;28;20811;-84
2021/11/21 00:08:45;;;;;;;11.10;10.00;;;;;;;7.23;82.09;95220.53;5054317;28;20576;-85
2021/11/21 00:11:12;;;;;;;11.57;9.70;;;;;;;7.24;82.63;95230.03;5054863;28;20450;-84
2021/11/21 00:13:39;;;;;;;15.13;10.90;;;;;;;7.18;82.87;95229.59;5055428;28;20442;-84
2021/11/21 00:16:08;;;;;;;11.17;9.10;;;;;;;7.11;82.38;95229.16;5054958;28;20430;-84
2021/11/21 00:18:35;;;;;;;14.00;9.10;;;;;;;7.04;82.78;95230.50;5054999;28;20540;-85
2021/11/21 00:21:02;;;;;;;13.37;9.00;;;;;;;6.98;83.09;95229.16;5055359;28;20481;-85
2021/11/21 00:23:29;;;;;;;10.87;8.30;;;;;;;6.92;83.21;95229.53;5055075;28;20449;-84
2021/11/21 00:25:56;;;;;;;9.33;8.43;;;;;;;6.89;83.68;95226.28;5055134;28;20777;-85
2021/11/21 00:28:23;;;;;;;10.70;8.50;;;;;;;6.90;83.78;95225.34;5055080;28;20462;-85
2021/11/21 00:30:50;;;;;;;10.73;8.47;;;;;;;6.87;83.32;95215.94;5055000;28;20454;-85
2021/11/21 00:33:19;;;;;;;10.47;8.10;;;;;;;6.92;83.76;95223.47;5054538;28;20485;-84
2021/11/21 00:35:46;;;;;;;9.63;7.70;;;;;;;6.94;83.38;95219.84;5054477;28;20449;-84
2021/11/21 00:38:14;;;;;;;10.53;7.17;;;;;;;6.96;83.72;95222.38;5054396;28;20925;-85
2021/11/21 00:40:41;;;;;;;10.80;8.00;;;;;;;6.98;83.46;95213.50;5054231;28;20528;-84
2021/11/21 00:43:08;;;;;;;9.03;7.87;;;;;;;7.02;83.63;95212.34;5054891;28;20812;-85
2021/11/21 00:45:35;;;;;;;8.70;7.10;;;;;;;7.08;82.61;95213.72;5054342;28;20446;-85
2021/11/21 00:48:02;;;;;;;14.10;7.87;;;;;;;7.05;82.97;95200.88;5054085;28;20963;-84
2021/11/21 00:50:32;;;;;;;10.60;8.03;;;;;;;7.08;82.56;95198.06;5054099;28;20438;-84
2021/11/21 00:53:02;;;;;;;10.03;8.37;;;;;;;7.03;82.73;95193.16;5053678;28;20568;-85
2021/11/21 00:55:35;;;;;;;10.03;7.63;;;;;;;6.97;83.47;95193.56;5054620;28;20442;-84
2021/11/21 00:58:02;;;;;;;9.17;7.20;;;;;;;6.92;83.64;95192.16;5054415;28;20450;-84
2021/11/21 01:00:30;;;;;;;8.43;7.63;;;;;;;6.81;83.47;95187.66;5053891;28;20454;-85
2021/11/21 01:02:57;;;;;;;9.60;8.43;;;;;;;6.72;83.87;95189.09;5054065;28;20455;-85
2021/11/21 01:05:24;;;;;;;7.57;6.80;;;;;;;6.71;84.51;95189.22;5053844;28;20956;-84
2021/11/21 01:07:52;;;;;;;12.57;8.00;;;;;;;6.68;84.77;95176.38;5053704;28;20489;-85
2021/11/21 01:10:22;;;;;;;11.07;7.43;;;;;;;6.67;84.63;95172.94;5054031;28;20492;-85
2021/11/21 01:12:53;;;;;;;7.57;6.87;;;;;;;6.69;84.81;95181.47;5053562;28;20490;-84
2021/11/21 01:15:20;;;;;;;9.77;7.07;;;;;;;6.69;84.61;95176.28;5054079;28;20457;-84
2021/11/21 01:17:48;;;;;;;12.00;8.83;;;;;;;6.71;84.11;95169.19;5053960;28;20435;-85
2021/11/21 01:20:15;;;;;;;8.00;7.10;;;;;;;6.69;84.57;95172.81;5054114;28;20455;-84
2021/11/21 01:22:42;;;;;;;8.23;7.43;;;;;;;6.65;85.44;95171.31;5053486;28;20446;-85
2021/11/21 01:25:12;;;;;;;12.40;8.00;;;;;;;6.68;85.46;95173.75;5053763;28;20549;-84
2021/11/21 01:27:40;;;;;;;9.23;8.30;;;;;;;6.70;85.35;95169.28;5053989;28;20434;-85
2021/11/21 01:30:10;;;;;;;10.93;8.40;;;;;;;6.72;84.90;95165.63;5056011;28;20962;-84
2021/11/21 01:32:37;;;;;;;8.40;7.53;;;;;;;6.67;85.25;95166.88;5068019;28;20488;-85
2021/11/21 01:35:05;;;;;;;8.70;7.80;;;;;;;6.61;85.19;95167.25;5066689;28;20981;-85
2021/11/21 01:37:33;;;;;;;10.73;7.43;;;;;;;6.60;85.79;95160.38;5053371;28;20464;-85
2021/11/21 01:40:00;;;;;;;10.27;8.67;;;;;;;6.59;85.63;95154.31;5053361;28;20442;-85
2021/11/21 01:42:29;;;;;;;11.97;7.90;;;;;;;6.63;85.85;95150.56;5053236;28;20808;-84
2021/11/21 01:44:56;;;;;;;10.07;8.37;;;;;;;6.63;85.63;95144.53;5053267;28;20467;-84
2021/11/21 01:47:23;;;;;;;8.87;7.97;;;;;;;6.68;85.86;95153.75;5053553;28;20434;-84
2021/11/21 01:49:50;;;;;;;12.27;7.57;;;;;;;6.71;85.67;95142.28;5053303;28;20452;-85
2021/11/21 01:52:17;;;;;;;11.70;8.63;;;;;;;6.76;84.88;95143.63;5053211;28;20473;-85
2021/11/21 01:54:44;;;;;;;10.03;9.00;;;;;;;6.80;84.40;95137.28;5053022;28;20437;-85
2021/11/21 01:57:12;;;;;;;11.00;9.47;;;;;;;6.83;83.35;95141.44;5052885;28;20479;-85
2021/11/21 01:59:41;;;;;;;14.30;11.77;;;;;;;6.84;82.72;95133.53;5052805;28;20449;-85
2021/11/21 02:02:08;;;;;;;13.03;10.83;;;;;;;6.77;82.95;95134.88;5053240;28;20467;-85
2021/11/21 02:04:34;;;;;;;10.07;7.77;;;;;;;6.72;83.68;95134.34;5053289;28;20467;-85
2021/11/21 02:07:01;;;;;;;9.57;8.53;;;;;;;6.68;84.48;95135.47;5053026;28;20448;-85
2021/11/21 02:09:28;;;;;;;11.30;9.03;;;;;;;6.68;84.40;95130.28;5053480;28;20471;-85
2021/11/21 02:11:55;;;;;;;10.93;8.00;;;;;;;6.69;85.09;95126.72;5053171;28;20456;-85
2021/11/21 02:14:22;;;;;;;11.90;8.00;;;;;;;6.69;84.86;95113.69;5053269;28;20457;-84
2021/11/21 02:16:51;;;;;;;8.10;7.30;;;;;;;6.72;84.34;95123.91;5053127;28;20437;-85
2021/11/21 02:19:19;;;;;;;9.80;7.50;;;;;;;6.73;84.34;95125.59;5052849;28;20445;-84
2021/11/21 02:21:47;;;;;;;10.00;7.13;;;;;;;6.74;84.74;95131.63;5052543;28;20533;-85
2021/11/21 02:24:15;;;;;;;10.23;8.40;;;;;;;6.69;84.39;95128.50;5052322;28;20923;-85
2021/11/21 02:26:42;;;;;;;11.03;9.83;;;;;;;6.64;85.20;95128.78;5052608;28;20511;-84
2021/11/21 02:29:11;;;;;;;9.93;7.93;;;;;;;6.64;85.21;95128.78;5052955;28;20463;-85
2021/11/21 02:31:39;;;;;;;9.80;7.67;;;;;;;6.66;84.97;95123.50;5052614;28;20463;-85
2021/11/21 02:34:06;;;;;;;9.47;8.47;;;;;;;6.68;85.31;95127.66;5052460;28;20490;-84
2021/11/21 02:36:33;;;;;;;10.00;8.30;;;;;;;6.66;85.26;95126.94;5053030;28;20872;-85
2021/11/21 02:39:02;;;;;;;9.83;8.50;;;;;;;6.64;85.23;95123.56;5052612;28;20453;-85
2021/11/21 02:41:29;;;;;;;8.40;7.70;;;;;;;6.68;84.55;95124.22;5053090;28;20877;-85
2021/11/21 02:43:57;;;;;;;12.03;8.17;;;;;;;6.62;83.87;95116.78;5053116;28;20448;-85
2021/11/21 02:46:24;;;;;;;8.70;7.73;;;;;;;6.62;83.98;95125.44;5052753;28;20449;-85
2021/11/21 02:48:51;;;;;;;8.80;7.80;;;;;;;6.57;84.86;95114.47;5052664;28;20441;-85
2021/11/21 02:51:18;;;;;;;11.00;7.83;;;;;;;6.59;85.11;95114.38;5054999;28;20814;-85
2021/11/21 02:53:46;;;;;;;12.37;8.97;;;;;;;6.61;84.78;95109.91;5055870;28;20485;-85
2021/11/21 02:56:17;;;;;;;9.97;7.83;;;;;;;6.60;84.86;95113.44;5055925;28;20433;-85
2021/11/21 02:58:45;;;;;;;10.77;9.00;;;;;;;6.56;84.81;95110.19;5055800;28;20525;-85
2021/11/21 03:01:14;;;;;;;9.70;8.60;;;;;;;6.58;84.68;95107.50;5055979;28;20451;-84
2021/11/21 03:03:41;;;;;;;13.17;9.47;;;;;;;6.52;84.44;95111.34;5056148;28;20444;-84
2021/11/21 03:06:08;;;;;;;11.03;9.00;;;;;;;6.52;84.67;95108.72;5056222;28;20959;-85
2021/11/21 03:08:36;;;;;;;10.23;9.10;;;;;;;6.50;84.92;95108.84;5055587;28;20481;-85
2021/11/21 03:11:18;;;;;;;9.73;8.13;;;;;;;6.45;84.60;95099.66;5056471;28;20468;-84
2021/11/21 03:13:47;;;;;;;10.13;8.43;;;;;;;6.44;85.58;95108.41;5055746;28;20491;-85
2021/11/21 03:16:14;;;;;;;10.30;8.90;;;;;;;6.39;84.98;95103.50;5055761;28;20452;-84
2021/11/21 03:18:41;;;;;;;10.23;9.20;;;;;;;6.37;84.94;95101.94;5055856;28;20540;-85
2021/11/21 03:21:08;;;;;;;8.50;7.60;;;;;;;6.32;84.98;95103.97;5055442;28;20445;-85
2021/11/21 03:23:35;;;;;;;12.53;7.60;;;;;;;6.28;85.68;95105.09;5055841;28;20455;-84
2021/11/21 03:26:02;;;;;;;9.00;8.10;;;;;;;6.22;86.06;95101.97;5055953;28;20453;-85
2021/11/21 03:28:29;;;;;;;12.37;9.57;;;;;;;6.15;86.99;95095.50;5055753;28;20458;-84
2021/11/21 03:30:58;;;;;;;9.87;8.67;;;;;;;6.12;86.39;95094.84;5055995;28;20467;-85
2021/11/21 03:33:25;;;;;;;11.83;9.17;;;;;;;6.09;86.58;95095.88;5055549;28;20483;-84
2021/11/21 03:35:52;;;;;;;8.70;7.90;;;;;;;6.12;87.11;95100.91;5055633;28;20437;-84
2021/11/21 03:38:19;;;;;;;13.67;9.70;;;;;;;6.06;86.41;95101.25;5055139;28;20449;-84
2021/11/21 03:40:46;;;;;;;10.53;9.43;;;;;;;6.04;87.26;95099.69;5055466;28;20449;-83
2021/11/21 03:43:13;;;;;;;12.53;9.00;;;;;;;6.06;87.16;95103.03;5055145;28;20460;-85
2021/11/21 03:45:40;;;;;;;13.53;9.00;;;;;;;6.09;86.81;95102.88;5055237;28;20443;-85
2021/11/21 03:48:09;;;;;;;9.27;7.90;;;;;;;6.03;86.58;95098.03;5055427;28;20810;-84
2021/11/21 03:50:36;;;;;;;12.07;8.53;;;;;;;6.02;87.07;95102.41;5055319;28;20445;-84
2021/11/21 03:53:03;;;;;;;11.50;8.80;;;;;;;6.03;86.41;95100.63;5055482;28;20531;-85
2021/11/21 03:55:30;;;;;;;8.93;8.03;;;;;;;5.99;86.78;95102.59;5055453;28;20452;-85
2021/11/21 03:57:57;;;;;;;12.30;9.63;;;;;;;5.98;87.10;95106.13;5055873;28;20942;-84
2021/11/21 04:00:26;;;;;;;10.60;8.30;;;;;;;6.00;86.96;95108.63;5054690;28;20449;-84
2021/11/21 04:02:55;;;;;;;10.53;8.53;;;;;;;5.98;86.87;95106.13;5054646;28;20441;-84
2021/11/21 04:05:24;;;;;;;12.93;9.30;;;;;;;6.02;86.62;95105.00;5054991;28;20451;-84
2021/11/21 04:07:51;;;;;;;10.63;8.17;;;;;;;5.98;86.93;95100.94;5054978;28;20477;-84
2021/11/21 04:10:19;;;;;;;11.67;8.83;;;;;;;5.93;86.44;95107.38;5054650;28;20446;-84
2021/11/21 04:12:46;;;;;;;10.67;9.40;;;;;;;5.86;86.97;95106.88;5054689;28;20456;-83
2021/11/21 04:15:13;;;;;;;11.00;9.40;;;;;;;5.87;87.71;95113.75;5054936;28;20449;-84
2021/11/21 04:17:40;;;;;;;12.47;8.77;;;;;;;5.87;87.49;95112.00;5054956;28;20808;-85
2021/11/21 04:20:10;;;;;;;10.27;8.53;;;;;;;5.88;87.44;95115.44;5054871;28;20946;-85
2021/11/21 04:22:39;;;;;;;15.50;8.70;;;;;;;5.89;87.56;95114.50;5054699;28;20448;-85
2021/11/21 04:25:07;;;;;;;9.83;8.50;;;;;;;5.88;87.69;95110.22;5035936;28;20449;-85
2021/11/21 04:27:34;;;;;;;10.77;8.47;;;;;;;5.92;86.75;95122.16;5055002;28;20448;-85
2021/11/21 04:30:02;;;;;;;11.27;9.37;;;;;;;5.91;86.19;95107.47;5054919;28;20442;-85
2021/11/21 04:32:30;;;;;;;15.07;12.37;;;;;;;5.86;86.05;95109.50;5054621;28;20500;-85
2021/11/21 04:34:57;;;;;;;13.97;11.53;;;;;;;5.85;84.79;95110.44;5054672;28;21090;-85
2021/11/21 04:37:24;;;;;;;13.87;11.50;;;;;;;5.84;83.65;95113.97;5054626;28;20449;-85
2021/11/21 04:39:52;;;;;;;15.13;10.90;;;;;;;5.71;85.04;95115.63;5054375;28;20524;-84
2021/11/21 04:42:19;;;;;;;12.93;10.67;;;;;;;5.70;85.95;95114.81;5054535;28;20449;-84
2021/11/21 04:44:46;;;;;;;13.50;10.23;;;;;;;5.69;86.80;95120.09;5035267;28;20437;-85
2021/11/21 04:47:14;;;;;;;9.87;8.73;;;;;;;5.68;87.98;95113.22;5054340;28;20440;-85
2021/11/21 04:49:41;;;;;;;13.33;9.40;;;;;;;5.65;87.73;95116.03;5054261;28;20537;-84
2021/11/21 04:52:09;;;;;;;9.83;8.80;;;;;;;5.65;88.27;95114.25;5054230;28;20505;-85
2021/11/21 04:54:36;;;;;;;11.47;8.47;;;;;;;5.58;88.29;95113.81;5053847;28;20487;-85
2021/11/21 04:57:06;;;;;;;10.17;8.73;;;;;;;5.51;88.57;95109.91;5054272;28;20440;-83
2021/11/21 04:59:33;;;;;;;9.70;8.07;;;;;;;5.43;89.52;95108.69;5053982;28;20974;-85
2021/11/21 05:02:00;;;;;;;9.67;7.97;;;;;;;5.46;89.30;95105.91;5054129;28;20491;-85
2021/11/21 05:04:27;;;;;;;11.80;9.37;;;;;;;5.43;90.51;95106.09;5053988;28;20459;-84
2021/11/21 05:06:54;;;;;;;13.07;9.30;;;;;;;5.42;90.18;95104.41;5053765;28;20449;-84
2021/11/21 05:09:21;;;;;;;14.20;9.50;;;;;;;5.45;90.75;95102.47;5034800;28;21026;-84
2021/11/21 05:11:48;;;;;;;10.50;8.13;;;;;;;5.49;89.60;95111.78;5035022;28;20873;-83
2021/11/21 05:14:18;;;;;;;10.90;9.77;;;;;;;5.45;90.09;95099.03;5034662;28;20487;-83
2021/11/21 05:16:45;;;;;;;12.70;9.50;;;;;;;5.44;90.04;95098.19;5054190;28;20450;-85
2021/11/21 05:19:13;;;;;;;11.40;9.63;;;;;;;5.44;92.62;95095.59;5055580;28;20463;-83
2021/11/21 05:21:40;;;;;;;11.20;10.07;;;;;;;5.44;93.44;95100.78;5066634;28;20441;-83
2021/11/21 05:24:08;;;;;;;12.03;9.00;;;;;;;5.47;92.51;95103.19;5063423;28;20532;-84
2021/11/21 05:26:35;;;;;;;8.90;8.00;;;;;;;5.47;91.05;95107.56;5054223;28;20453;-85
2021/11/21 05:29:02;;;;;;;10.87;7.53;;;;;;;5.39;90.87;95096.81;5036632;28;20441;-85
2021/11/21 05:31:32;;;;;;;12.67;9.33;;;;;;;5.36;91.17;95104.81;5054594;28;20434;-85
2021/11/21 05:33:59;;;;;;;15.23;10.23;;;;;;;5.42;90.75;95102.66;5054819;28;20493;-84
2021/11/21 05:36:26;;;;;;;17.77;12.50;;;;;;;5.41;91.09;95101.00;5054878;28;20461;-86
2021/11/21 05:38:53;;;;;;;16.97;13.00;;;;;;;5.44;90.55;95099.97;5054377;28;21023;-84
2021/11/21 05:41:20;;;;;;;17.23;12.97;;;;;;;5.44;89.57;95095.59;5054890;28;20855;-84
2021/11/21 05:43:48;;;;;;;30.13;19.10;;;;;;;5.51;89.32;95096.91;5054593;28;20548;-86
2021/11/21 05:46:15;;;;;;;34.27;18.60;;;;;;;5.44;89.31;95097.34;5055119;28;20936;-83
2021/11/21 05:48:43;;;;;;;46.43;30.27;;;;;;;5.27;89.01;95095.81;5053537;28;20477;-85
2021/11/21 05:51:11;;;;;;;30.67;25.10;;;;;;;5.27;88.57;95099.25;5053506;28;20430;-85
2021/11/21 05:53:38;;;;;;;32.93;22.70;;;;;;;5.31;89.07;95094.69;5053236;28;20979;-85
2021/11/21 05:56:06;;;;;;;44.43;33.53;;;;;;;5.32;88.88;95101.56;5052865;28;20966;-84
2021/11/21 05:58:33;;;;;;;33.13;25.63;;;;;;;5.38;89.42;95103.78;5052985;28;20456;-86
2021/11/21 06:01:00;;;;;;;27.27;20.20;;;;;;;5.45;89.45;95099.88;5053711;28;20473;-86
2021/11/21 06:03:27;;;;;;;29.23;19.50;;;;;;;5.51;88.98;95101.28;5053680;28;20842;-86
2021/11/21 06:05:56;;;;;;;28.30;19.97;;;;;;;5.62;88.51;95111.00;5054076;28;20471;-85
2021/11/21 06:08:23;;;;;;;35.20;20.40;;;;;;;5.72;88.52;95112.09;5054795;28;20486;-88
2021/11/21 06:10:50;;;;;;;30.73;18.63;;;;;;;5.72;87.98;95114.72;5054256;28;20971;-87
2021/11/21 06:13:17;;;;;;;26.97;20.30;;;;;;;5.79;86.72;95113.41;5053274;28;20932;-81
2021/11/21 06:22:29;;;;;;;22.37;18.60;;;;;;;5.95;86.47;95116.75;5054189;28;20440;-87
2021/11/21 06:24:56;;;;;;;31.50;19.20;;;;;;;6.01;87.28;95113.75;5056286;28;20446;-85
2021/11/21 06:27:23;;;;;;;27.00;19.10;;;;;;;6.08;87.78;95112.44;5059087;28;20536;-86
2021/11/21 06:29:50;;;;;;;26.03;19.43;;;;;;;6.15;86.87;95113.72;5058640;28;20457;-86
2021/11/21 06:32:17;;;;;;;30.50;19.80;;;;;;;6.15;87.20;95113.72;5058176;28;20441;-89
2021/11/21 06:34:44;;;;;;;32.83;21.97;;;;;;;6.21;87.43;95102.91;5058423;28;20477;-85
2021/11/21 06:37:12;;;;;;;28.03;21.47;;;;;;;6.29;87.27;95107.63;5058342;28;20877;-87
2021/11/21 06:39:42;;;;;;;27.67;19.30;;;;;;;6.36;86.80;95100.22;5058080;28;20440;-84
2021/11/21 06:42:12;;;;;;;27.73;20.60;;;;;;;6.45;86.34;95102.25;5058778;28;20461;-87
2021/11/21 06:44:39;;;;;;;28.47;19.40;;;;;;;6.52;86.57;95103.53;5059695;28;20831;-84
2021/11/21 06:47:06;;;;;;;25.90;17.57;;;;;;;6.62;86.07;95093.31;5053226;28;20469;-85
2021/11/21 06:49:34;;;;;;;25.27;20.17;;;;;;;6.72;86.71;95097.84;5058201;28;20441;-85
2021/11/21 06:52:01;;;;;;;30.63;20.10;;;;;;;6.82;85.71;95104.09;5057555;28;20461;-85
2021/11/21 06:54:28;;;;;;;27.23;20.00;;;;;;;6.83;86.54;95097.09;5057275;28;20477;-85
2021/11/21 06:56:57;;;;;;;26.87;18.63;;;;;;;6.86;87.13;95096.91;5057606;28;20502;-86
2021/11/21 06:59:24;;;;;;;26.13;18.90;;;;;;;6.89;86.94;95093.25;5057889;28;20450;-85
2021/11/21 07:01:51;;;;;;;29.17;19.10;;;;;;;6.97;87.21;95096.19;5075821;28;20467;-83
2021/11/21 07:04:18;;;;;;;26.73;19.27;;;;;;;7.03;87.69;95095.78;5077577;28;20450;-86
2021/11/21 07:06:47;;;;;;;23.63;18.03;;;;;;;7.11;88.19;95078.66;5078311;28;20804;-86
2021/11/21 07:09:17;;;;;;;19.40;14.97;;;;;;;7.18;88.05;95079.06;5077561;28;20476;-84
2021/11/21 07:11:45;;;;;;;19.43;14.03;;;;;;;7.23;88.63;95082.22;5060664;28;20433;-84
2021/11/21 07:14:14;;;;;;;53.17;31.20;;;;;;;6.94;89.55;95078.13;5022813;28;20812;-86
2021/11/21 07:16:44;;;;;;;46.80;31.77;;;;;;;7.00;89.47;95080.34;5057977;28;20452;-86
2021/11/21 07:19:11;;;;;;;80.03;46.03;;;;;;;6.60;88.70;95077.78;5056970;28;20448;-85
2021/11/21 07:21:38;;;;;;;94.70;49.43;;;;;;;6.72;88.52;95071.75;5057901;28;20852;-84
2021/11/21 07:24:06;;;;;;;85.93;47.27;;;;;;;6.71;87.93;95080.53;5057158;28;20464;-84
2021/11/21 07:26:45;;;;;;;88.27;49.23;;;;;;;6.69;88.51;95077.19;5056554;28;20447;-83
2021/11/21 07:29:14;;;;;;;78.17;44.70;;;;;;;6.43;89.04;95073.69;5068195;28;20436;-85
2021/11/21 07:31:41;;;;;;;56.13;35.87;;;;;;;6.40;89.26;95078.28;5078477;28;20427;-84
2021/11/21 07:34:09;;;;;;;48.63;32.10;;;;;;;6.41;90.47;95061.69;5058611;28;20494;-85
2021/11/21 07:36:36;;;;;;;47.60;30.70;;;;;;;6.41;90.35;95074.72;5050606;28;20807;-85
2021/11/21 07:39:04;;;;;;;42.03;28.70;;;;;;;6.41;90.62;95072.13;5036364;28;20445;-84
2021/11/21 07:41:30;;;;;;;31.53;23.33;;;;;;;6.07;92.04;95070.84;5036472;28;20432;-84
2021/11/21 07:43:57;;;;;;;29.20;20.93;;;;;;;6.08;92.70;95068.16;5039496;28;20440;-83
2021/11/21 07:46:26;;;;;;;29.60;22.03;;;;;;;6.22;93.18;95068.09;5036987;28;20797;-86
2021/11/21 07:48:53;;;;;;;30.50;23.60;;;;;;;6.24;93.33;95065.38;5036817;28;20445;-86
2021/11/21 07:51:21;;;;;;;31.70;22.00;;;;;;;6.28;93.53;95066.84;5037079;28;20460;-86
2021/11/21 07:53:48;;;;;;;29.73;22.63;;;;;;;6.32;93.85;95068.31;5036968;28;20429;-85
2021/11/21 07:56:15;;;;;;;34.47;23.17;;;;;;;6.33;93.20;95064.78;5055002;28;20442;-86
2021/11/21 07:58:42;;;;;;;37.47;24.67;;;;;;;6.33;92.99;95067.38;5064080;28;20443;-87
2021/11/21 08:04:32;;;;;;;39.40;27.00;;;;;;;6.33;94.17;95064.78;5077622;28;21359;-85
2021/11/21 08:06:59;;;;;;;38.27;23.87;;;;;;;6.26;94.39;95060.06;5077182;28;20438;-86
2021/11/21 08:09:26;;;;;;;42.20;26.67;;;;;;;6.29;94.13;95059.88;5076077;28;20471;-83
2021/11/21 08:11:53;;;;;;;37.70;26.63;;;;;;;6.39;95.23;95058.34;5075798;28;20451;-84
2021/11/21 08:14:20;;;;;;;48.67;26.43;;;;;;;6.49;94.78;95065.47;5076226;28;20959;-83
2021/11/21 08:16:47;;;;;;;43.60;24.93;;;;;;;6.68;94.89;95065.09;5075192;28;20428;-81
2021/11/21 08:19:14;;;;;;;50.27;29.50;;;;;;;6.75;93.48;95060.28;5075735;28;20911;-83
2021/11/21 08:21:43;;;;;;;37.50;25.73;;;;;;;6.87;93.44;95053.41;5075398;28;20529;-84
2021/11/21 08:24:10;;;;;;;33.80;25.50;;;;;;;7.03;92.85;95062.69;5074972;28;20942;-83
2021/11/21 08:26:37;;;;;;;38.77;24.13;;;;;;;7.18;91.63;95058.19;5076197;28;20454;-86
2021/11/21 08:29:05;;;;;;;33.67;24.20;;;;;;;7.27;91.46;95062.78;5076021;28;20441;-87
2021/11/21 08:31:32;;;;;;;27.60;21.20;;;;;;;7.41;91.01;95067.88;5075978;28;20459;-85
2021/11/21 08:33:59;;;;;;;29.90;21.30;;;;;;;7.58;90.85;95065.88;5075694;28;20945;-85
2021/11/21 08:36:26;;;;;;;50.53;25.07;;;;;;;7.73;90.03;95052.56;5064640;28;20440;-86
2021/11/21 08:38:55;;;;;;;25.70;18.90;;;;;;;7.84;88.94;95045.75;5020871;28;20442;-85
2021/11/21 08:41:22;;;;;;;32.73;19.97;;;;;;;7.99;87.72;95048.09;5057375;28;20448;-85
2021/11/21 08:43:49;;;;;;;33.07;23.47;;;;;;;8.13;88.10;95056.72;5073506;28;20457;-85
2021/11/21 08:46:15;;;;;;;52.97;30.50;;;;;;;8.28;87.22;95052.97;5055239;28;20439;-85
2021/11/21 08:48:42;;;;;;;60.67;33.53;;;;;;;8.41;86.82;95043.34;5053867;28;20439;-85
2021/11/21 08:51:10;;;;;;;82.77;36.47;;;;;;;8.56;86.53;95049.19;5054826;28;20440;-84
2021/11/21 08:53:37;;;;;;;36.00;24.30;;;;;;;8.69;86.17;95042.94;5036586;28;21289;-85
2021/11/21 08:56:06;;;;;;;26.97;18.70;;;;;;;8.82;85.63;95036.78;5054787;28;20478;-86
2021/11/21 08:58:33;;;;;;;26.57;19.17;;;;;;;8.87;84.29;95035.47;5055166;28;20553;-86
2021/11/21 09:01:00;;;;;;;29.87;20.40;;;;;;;8.95;84.83;95025.25;5055335;28;20453;-86
2021/11/21 09:03:26;;;;;;;28.47;18.37;;;;;;;9.10;84.31;95028.50;5054974;28;20464;-85
2021/11/21 09:05:53;;;;;;;29.90;20.83;;;;;;;9.24;83.64;95023.03;5059823;28;20429;-86
2021/11/21 09:08:20;;;;;;;27.13;17.80;;;;;;;9.29;82.51;95017.44;5066443;28;20523;-85
2021/11/21 09:10:47;;;;;;;21.57;16.20;;;;;;;9.35;82.77;95014.34;5055063;28;20438;-85
2021/11/21 09:13:16;;;;;;;24.10;17.33;;;;;;;9.52;81.94;95013.00;5054129;28;20434;-82
2021/11/21 09:15:43;;;;;;;24.67;19.50;;;;;;;9.63;81.68;95005.16;5054052;28;20483;-82
2021/11/21 09:18:10;;;;;;;18.30;15.60;;;;;;;9.77;81.41;95011.91;5054449;28;20434;-83
2021/11/21 09:20:37;;;;;;;23.57;18.20;;;;;;;9.86;81.06;95004.16;5055187;28;20438;-82
2021/11/21 09:23:10;;;;;;;34.80;22.87;;;;;;;9.78;81.71;95003.91;5060570;28;20487;-82
2021/11/21 09:25:37;;;;;;;29.30;21.23;;;;;;;9.80;80.96;94996.75;5039868;28;20917;-83
2021/11/21 09:28:04;;;;;;;27.50;20.93;;;;;;;9.77;80.86;94989.16;5034033;28;20437;-82
2021/11/21 09:30:33;;;;;;;26.70;18.63;;;;;;;9.80;81.17;94988.91;5034223;28;20437;-83
2021/11/21 09:33:00;;;;;;;30.03;19.27;;;;;;;9.80;80.69;94981.03;5034266;28;20899;-83
2021/11/21 09:35:27;;;;;;;29.13;18.03;;;;;;;9.85;80.37;94981.53;5033648;28;20482;-83
2021/11/21 09:37:54;;;;;;;21.47;16.23;;;;;;;9.92;80.46;94980.06;5033736;28;20437;-83
2021/11/21 09:40:21;;;;;;;23.37;17.10;;;;;;;10.07;80.44;94982.41;5033948;28;20517;-83
2021/11/21 09:42:48;;;;;;;22.73;16.17;;;;;;;10.11;79.85;94975.94;5016318;28;20438;-83
2021/11/21 09:45:16;;;;;;;23.93;18.40;;;;;;;10.23;80.44;94973.19;5048397;28;20528;-83
2021/11/21 09:47:50;;;;;;;22.43;17.20;;;;;;;10.25;80.11;94965.19;5053966;28;20445;-83
2021/11/21 09:50:17;;;;;;;23.93;17.83;;;;;;;10.20;79.72;94964.72;5058987;28;20518;-84
2021/11/21 09:52:44;;;;;;;19.10;15.87;;;;;;;9.91;80.28;94951.38;5073877;28;20456;-83
2021/11/21 09:55:11;;;;;;;24.10;17.57;;;;;;;9.85;80.48;94957.94;5025953;28;20491;-83
2021/11/21 09:57:39;;;;;;;23.37;16.90;;;;;;;9.86;80.85;94943.88;5053683;28;20910;-83
2021/11/21 10:00:09;;;;;;;16.53;13.37;;;;;;;9.96;80.60;94946.59;5033164;28;20431;-83
2021/11/21 10:02:38;;;;;;;20.60;14.80;;;;;;;9.96;80.26;94945.75;5033459;28;20466;-83
2021/11/21 10:05:16;;;;;;;21.50;16.90;;;;;;;10.00;79.80;94944.53;5034921;28;20474;-85
2021/11/21 10:07:43;;;;;;;19.93;16.23;;;;;;;10.03;79.38;94931.19;5035042;28;20513;-85
2021/11/21 10:10:14;;;;;;;21.10;18.00;;;;;;;9.93;80.42;94929.31;5035567;28;20504;-84
2021/11/21 10:12:42;;;;;;;24.10;18.40;;;;;;;9.86;80.30;94922.91;5035769;28;20831;-85
2021/11/21 10:15:13;;;;;;;28.80;20.77;;;;;;;9.97;79.90;94914.16;5054539;28;20485;-87
2021/11/21 10:17:42;;;;;;;24.47;18.70;;;;;;;9.98;80.18;94915.00;5035746;28;20925;-85
2021/11/21 10:20:15;;;;;;;24.23;18.10;;;;;;;9.94;80.05;94901.31;5060208;28;20448;-84
2021/11/21 10:23:01;;;;;;;27.07;18.40;;;;;;;10.00;79.86;94900.81;5054430;28;20548;-87
2021/11/21 10:25:44;;;;;;;27.50;19.93;;;;;;;9.99;80.78;94896.53;5067300;28;20433;-87
2021/11/21 10:28:14;;;;;;;24.40;18.70;;;;;;;10.02;79.95;94895.44;5074005;28;20440;-86
2021/11/21 10:31:08;;;;;;;28.50;19.03;;;;;;;10.00;80.55;94892.09;5074061;28;20455;-84
2021/11/21 10:33:38;;;;;;;25.70;19.27;;;;;;;9.98;80.45;94880.91;5075127;28;20446;-87
2021/11/21 10:36:09;;;;;;;26.13;19.27;;;;;;;9.99;80.23;94879.97;5075569;28;20483;-86
2021/11/21 10:38:40;;;;;;;30.20;19.67;;;;;;;10.00;80.35;94882.44;5057708;28;20524;-86
2021/11/21 10:41:14;;;;;;;26.97;20.10;;;;;;;10.08;79.07;94868.69;5066203;28;20500;-86
2021/11/21 10:43:43;;;;;;;27.97;19.00;;;;;;;10.23;78.96;94870.09;5055717;28;20785;-87
2021/11/21 10:46:22;;;;;;;24.97;19.83;;;;;;;10.41;78.65;94858.06;5073346;28;20433;-86
2021/11/21 10:48:49;;;;;;;29.77;20.90;;;;;;;10.45;78.43;94862.09;5074437;28;20437;-85
2021/11/21 10:51:21;;;;;;;25.57;20.00;;;;;;;10.40;78.93;94860.78;5063804;28;20456;-88
2021/11/21 10:53:48;;;;;;;24.80;19.10;;;;;;;10.47;79.38;94854.09;5035903;28;20441;-88
2021/11/21 10:56:15;;;;;;;26.63;20.57;;;;;;;10.63;78.48;94848.34;5053733;28;20860;-85
2021/11/21 10:58:46;;;;;;;23.57;17.30;;;;;;;10.74;77.32;94845.66;5054038;28;20438;-85
2021/11/21 11:01:21;;;;;;;23.93;18.03;;;;;;;10.84;77.05;94847.34;5044146;28;20866;-85
2021/11/21 11:04:09;;;;;;;25.63;17.47;;;;;;;10.94;76.93;94836.84;5033650;28;20429;-85
2021/11/21 11:06:38;;;;;;;22.80;16.27;;;;;;;11.03;75.15;94836.06;5033697;28;20443;-86
2021/11/21 11:09:20;;;;;;;28.70;16.80;;;;;;;11.05;74.83;94828.91;5033858;28;20470;-82
2021/11/21 11:11:48;;;;;;;20.97;17.13;;;;;;;11.10;75.09;94826.69;5035329;28;20434;-84
2021/11/21 11:17:38;;;;;;;29.83;19.60;;;;;;;11.39;73.32;94818.84;5056912;28;20409;-85
2021/11/21 11:20:09;;;;;;;20.97;16.97;;;;;;;11.45;73.47;94812.22;5056888;28;20794;-84
2021/11/21 11:22:39;;;;;;;24.67;16.93;;;;;;;11.43;73.65;94814.16;5056909;28;20450;-88
2021/11/21 11:25:10;;;;;;;23.50;17.80;;;;;;;11.43;73.32;94812.34;5057630;28;20436;-86
2021/11/21 11:27:45;;;;;;;21.57;16.03;;;;;;;11.41;72.74;94808.22;5057373;28;20473;-88
2021/11/21 11:30:13;;;;;;;25.40;16.87;;;;;;;11.37;73.03;94796.31;5056899;28;20458;-85
2021/11/21 11:32:42;;;;;;;20.30;16.00;;;;;;;11.09;72.47;94792.69;5057233;28;20448;-89
2021/11/21 11:35:31;;;;;;;22.03;17.00;;;;;;;11.13;73.99;94789.66;5058178;28;20471;-87
2021/11/21 11:38:09;;;;;;;19.87;16.10;;;;;;;11.20;73.72;94783.84;5057767;28;20459;-86
2021/11/21 11:40:51;;;;;;;23.73;17.70;;;;;;;11.85;94.04;94763.94;5057136;28;20430;-84
2021/11/21 11:43:34;;;;;;;24.10;16.10;;;;;;;11.70;75.41;94771.41;5057486;28;20913;-88
2021/11/21 11:46:09;;;;;;;23.50;16.20;;;;;;;11.79;73.00;94774.06;5057758;28;20455;-86
2021/11/21 11:48:39;;;;;;;20.27;15.47;;;;;;;11.89;71.69;94766.19;5057251;28;20515;-86